createdAt,value
2019-04-04T00:01:16.739Z,94909.11
2019-04-04T00:03:45.891Z,94916.87
2019-04-04T00:06:15.569Z,94902.98
2019-04-04T00:08:45.272Z,94907.20
2019-04-04T00:11:22.372Z,94905.63
2019-04-04T00:20:19.608Z,94892.97
2019-04-04T00:26:00.158Z,94902.01
2019-04-04T00:28:31.544Z,94893.92
2019-04-04T00:31:02.771Z,94895.06
2019-04-04T00:33:32.623Z,94899.88
2019-04-04T00:36:02.648Z,94896.72
2019-04-04T00:38:33.193Z,94903.88
2019-04-04T00:41:03.028Z,94903.02
2019-04-04T00:43:32.814Z,94906.97
2019-04-04T00:46:02.485Z,94903.88
2019-04-04T00:48:34.056Z,94900.27
2019-04-04T00:51:03.568Z,94905.48
2019-04-04T00:53:33.350Z,94906.45
2019-04-04T00:56:03.105Z,94899.55
2019-04-04T00:58:32.762Z,94905.61
2019-04-04T01:01:02.391Z,94913.97
2019-04-04T01:03:32.056Z,94903.38
2019-04-04T01:06:03.508Z,94909.78
2019-04-04T01:08:32.979Z,94901.42
2019-04-04T01:11:02.636Z,94900.75
2019-04-04T01:13:32.386Z,94901.75
2019-04-04T01:16:33.641Z,94907.22
2019-04-04T01:19:05.218Z,94902.31
2019-04-04T01:21:34.877Z,94906.75
2019-04-04T01:24:04.576Z,94897.28
2019-04-04T01:26:35.275Z,94903.06
2019-04-04T01:29:06.032Z,94910.22
2019-04-04T01:31:35.643Z,94917.37
2019-04-04T01:34:05.266Z,94917.20
2019-04-04T01:36:34.896Z,94900.28
2019-04-04T01:39:05.908Z,94906.16
2019-04-04T01:41:36.306Z,94905.30
2019-04-04T01:44:06.642Z,94914.11
2019-04-04T01:46:36.059Z,94914.19
2019-04-04T01:49:05.623Z,94914.71
2019-04-04T01:51:35.206Z,94913.92
2019-04-04T01:54:04.774Z,94910.59
2019-04-04T01:56:35.021Z,94917.31
2019-04-04T01:59:05.574Z,94918.25
2019-04-04T02:01:35.137Z,94920.55
2019-04-04T02:04:04.863Z,94917.52
2019-04-04T02:06:34.428Z,94913.64
2019-04-04T02:09:05.613Z,94913.48
2019-04-04T02:11:37.308Z,94913.09
2019-04-04T02:14:11.896Z,94923.55
2019-04-04T02:16:43.345Z,94913.44
2019-04-04T02:19:12.825Z,94923.57
2019-04-04T02:21:42.247Z,94925.84
2019-04-04T02:24:12.882Z,94917.58
2019-04-04T02:26:42.436Z,94925.83
2019-04-04T02:29:11.855Z,94899.28
2019-04-04T02:31:42.919Z,94925.23
2019-04-04T02:34:12.574Z,94925.37
2019-04-04T02:36:42.125Z,94923.77
2019-04-04T02:39:14.633Z,94916.90
2019-04-04T02:41:47.575Z,94930.11
2019-04-04T02:44:15.703Z,94912.72
2019-04-04T02:46:45.836Z,94929.73
2019-04-04T02:49:16.826Z,94930.21
2019-04-04T02:51:46.422Z,94918.88
2019-04-04T02:54:15.976Z,94909.37
2019-04-04T02:56:45.402Z,94922.06
2019-04-04T02:59:20.205Z,94916.33
2019-04-04T03:01:46.401Z,94874.95
2019-04-04T03:04:17.063Z,94921.92
2019-04-04T03:06:46.544Z,94919.52
2019-04-04T03:09:16.105Z,94883.41
2019-04-04T03:11:45.749Z,94927.70
2019-04-04T03:14:15.261Z,94928.33
2019-04-04T03:16:44.811Z,94919.18
2019-04-04T03:19:14.336Z,94926.70
2019-04-04T03:21:43.912Z,94934.54
2019-04-04T03:24:13.334Z,94935.82
2019-04-04T03:26:42.973Z,94932.01
2019-04-04T03:29:12.662Z,94934.06
2019-04-04T03:31:42.310Z,94927.22
2019-04-04T03:34:13.090Z,94931.20
2019-04-04T03:36:42.902Z,94934.06
2019-04-04T03:39:12.458Z,94939.30
2019-04-04T03:41:42.168Z,94932.94
2019-04-04T03:44:11.744Z,94932.00
2019-04-04T03:46:41.272Z,94927.86
2019-04-04T03:49:10.779Z,94932.16
2019-04-04T03:51:40.335Z,94933.91
2019-04-04T03:54:11.497Z,94943.47
2019-04-04T03:56:40.918Z,94946.66
2019-04-04T03:59:10.421Z,94937.56
2019-04-04T04:01:54.205Z,94945.55
2019-04-04T04:04:26.815Z,94946.98
2019-04-04T04:06:55.073Z,94951.13
2019-04-04T04:09:27.255Z,94958.77
2019-04-04T04:11:56.947Z,94956.53
2019-04-04T04:14:29.484Z,94963.06
2019-04-04T04:17:02.048Z,94958.13
2019-04-04T04:19:33.598Z,94968.31
2019-04-04T04:22:02.931Z,94966.39
2019-04-04T04:24:32.482Z,94962.41
2019-04-04T04:27:02.008Z,94965.42
2019-04-04T04:29:31.451Z,94967.95
2019-04-04T04:32:00.856Z,94962.67
2019-04-04T04:34:33.321Z,94964.92
2019-04-04T04:37:01.568Z,94955.17
2019-04-04T04:39:41.125Z,94963.31
2019-04-04T04:42:09.384Z,94957.02
2019-04-04T04:44:39.096Z,94962.37
2019-04-04T04:47:08.721Z,94959.77
2019-04-04T04:49:38.207Z,94953.08
2019-04-04T04:52:07.914Z,94956.95
2019-04-04T04:54:40.935Z,94954.89
2019-04-04T04:57:28.204Z,94956.41
2019-04-04T04:59:45.694Z,94954.84
2019-04-04T05:02:31.485Z,94955.13
2019-04-04T05:05:49.949Z,94955.43
2019-04-04T05:08:25.053Z,94949.13
2019-04-04T05:11:11.268Z,94949.84
2019-04-04T05:13:44.478Z,94958.54
2019-04-04T05:16:14.267Z,94951.68
2019-04-04T05:18:43.961Z,94948.55
2019-04-04T05:21:24.388Z,94947.94
2019-04-04T05:23:48.345Z,94949.31
2019-04-04T05:26:21.077Z,94949.19
2019-04-04T05:28:50.762Z,94948.86
2019-04-04T05:31:26.116Z,94948.75
2019-04-04T05:33:59.799Z,94940.91
2019-04-04T05:36:29.575Z,94944.50
2019-04-04T05:38:59.265Z,94947.21
2019-04-04T05:41:29.062Z,94936.91
2019-04-04T05:44:03.387Z,94938.59
2019-04-04T05:46:37.237Z,94942.15
2019-04-04T05:49:08.278Z,94936.16
2019-04-04T05:51:41.055Z,94932.39
2019-04-04T05:54:13.553Z,94939.71
2019-04-04T05:56:44.537Z,94934.59
2019-04-04T05:59:14.426Z,94928.62
2019-04-04T06:01:45.555Z,94932.89
2019-04-04T06:04:17.235Z,94927.66
2019-04-04T06:06:49.874Z,94934.59
2019-04-04T06:09:19.720Z,94934.55
2019-04-04T06:11:53.068Z,94936.90
2019-04-04T06:14:37.467Z,94923.17
2019-04-04T06:17:09.362Z,94931.45
2019-04-04T06:19:44.683Z,94930.31
2019-04-04T06:22:14.723Z,94927.60
2019-04-04T06:24:44.325Z,94926.67
2019-04-04T06:27:14.032Z,94930.32
2019-04-04T06:29:47.674Z,94938.52
2019-04-04T06:32:18.323Z,94935.70
2019-04-04T06:34:47.982Z,94925.01
2019-04-04T06:37:18.094Z,94924.12
2019-04-04T06:39:48.785Z,94928.45
2019-04-04T06:42:18.406Z,94926.85
2019-04-04T06:44:54.330Z,94927.97
2019-04-04T06:47:26.326Z,94919.41
2019-04-04T06:49:56.816Z,94871.83
2019-04-04T06:52:28.971Z,94922.20
2019-04-04T06:54:58.683Z,94913.42
2019-04-04T07:00:27.666Z,94915.64
2019-04-04T07:02:58.555Z,94920.28
2019-04-04T07:05:51.870Z,94920.61
2019-04-04T07:08:21.507Z,94923.67
2019-04-04T07:10:57.775Z,94923.92
2019-04-04T07:16:41.794Z,94919.73
2019-04-04T07:19:14.133Z,94926.01
2019-04-04T07:21:42.720Z,94919.89
2019-04-04T07:24:13.450Z,94918.22
2019-04-04T07:26:45.386Z,94919.59
2019-04-04T07:29:17.926Z,94919.04
2019-04-04T07:31:50.926Z,94917.65
2019-04-04T07:34:33.994Z,94909.61
2019-04-04T07:37:03.742Z,94912.40
2019-04-04T07:39:49.920Z,94915.63
2019-04-04T07:42:19.239Z,94911.55
2019-04-04T07:44:48.956Z,94904.86
2019-04-04T07:47:18.623Z,94900.51
2019-04-04T07:49:48.191Z,94905.44
2019-04-04T07:52:17.905Z,94898.45
2019-04-04T07:54:47.582Z,94897.31
2019-04-04T07:57:17.328Z,94894.93
2019-04-04T07:59:55.910Z,94874.45
2019-04-04T08:02:46.165Z,94890.00
2019-04-04T08:05:46.291Z,94885.97
2019-04-04T08:08:43.665Z,94864.89
2019-04-04T08:11:13.303Z,94869.52
2019-04-04T08:13:49.234Z,94869.31
2019-04-04T08:16:18.861Z,94865.39
2019-04-04T08:18:48.569Z,94868.77
2019-04-04T08:21:18.107Z,94869.08
2019-04-04T08:23:47.638Z,94873.45
2019-04-04T08:26:17.241Z,94879.27
2019-04-04T08:28:46.951Z,94861.53
2019-04-04T08:31:16.628Z,94865.33
2019-04-04T08:33:46.351Z,94864.84
2019-04-04T08:36:19.115Z,94857.84
2019-04-04T08:42:02.871Z,94862.39
2019-04-04T08:44:32.556Z,94868.58
2019-04-04T08:47:02.214Z,94857.64
2019-04-04T08:49:31.780Z,94852.25
2019-04-04T08:52:06.966Z,94861.28
2019-04-04T08:54:48.039Z,94853.19
2019-04-04T08:57:18.285Z,94840.44
2019-04-04T08:59:47.717Z,94835.02
2019-04-04T09:02:20.693Z,94840.33
2019-04-04T09:04:53.166Z,94824.02
2019-04-04T09:07:22.750Z,94830.00
2019-04-04T09:10:49.301Z,94828.33
2019-04-04T09:13:05.669Z,94832.72
2019-04-04T09:15:35.473Z,94811.77
2019-04-04T09:18:06.246Z,94810.52
2019-04-04T09:20:40.218Z,94804.06
2019-04-04T09:23:10.171Z,94810.08
2019-04-04T09:25:40.937Z,94792.25
2019-04-04T09:28:12.637Z,94796.89
2019-04-04T09:30:42.325Z,94787.77
2019-04-04T09:33:30.325Z,94795.16
2019-04-04T09:35:59.227Z,94782.54
2019-04-04T09:38:32.176Z,94795.31
2019-04-04T09:41:02.094Z,94781.36
2019-04-04T09:43:36.983Z,94774.90
2019-04-04T09:46:08.092Z,94762.50
2019-04-04T09:52:02.141Z,94699.91
2019-04-04T09:54:31.830Z,94748.16
2019-04-04T09:57:03.235Z,94746.06
2019-04-04T09:59:32.943Z,94738.48
2019-04-04T10:02:02.657Z,94730.71
2019-04-04T10:04:32.447Z,94722.91
2019-04-04T10:07:02.179Z,94716.38
2019-04-04T10:09:35.095Z,94707.80
2019-04-04T10:12:09.008Z,94694.01
2019-04-04T10:14:46.082Z,94694.96
2019-04-04T10:17:17.395Z,94690.88
2019-04-04T10:20:02.362Z,94687.48
2019-04-04T10:22:41.061Z,94683.69
2019-04-04T10:28:16.897Z,94669.11
2019-04-04T10:30:46.601Z,94669.96
2019-04-04T10:33:16.244Z,94672.19
2019-04-04T10:35:47.489Z,94671.75
2019-04-04T10:38:17.226Z,94663.58
2019-04-04T10:40:46.764Z,94656.33
2019-04-04T10:43:16.370Z,94660.44
2019-04-04T10:45:45.797Z,94652.28
2019-04-04T10:48:15.437Z,94644.48
2019-04-04T10:50:45.116Z,94642.06
2019-04-04T10:53:14.978Z,94632.45
2019-04-04T10:55:45.471Z,94627.17
2019-04-04T10:58:15.236Z,94628.75
2019-04-04T11:00:44.922Z,94612.04
2019-04-04T11:03:14.790Z,94631.16
2019-04-04T11:05:44.387Z,94615.05
2019-04-04T11:08:14.151Z,94613.73
2019-04-04T11:10:46.602Z,94597.56
2019-04-04T11:13:33.386Z,94593.06
2019-04-04T11:15:58.005Z,94591.53
2019-04-04T11:18:27.614Z,94596.34
2019-04-04T11:21:01.899Z,94595.81
2019-04-04T11:23:42.509Z,94591.06
2019-04-04T11:26:12.114Z,94589.02
2019-04-04T11:31:30.855Z,94578.48
2019-04-04T11:34:01.525Z,94563.78
2019-04-04T11:36:37.249Z,94567.47
2019-04-04T11:39:11.261Z,94560.63
2019-04-04T11:41:42.482Z,94556.78
2019-04-04T11:44:12.164Z,94562.14
2019-04-04T11:46:41.999Z,94556.89
2019-04-04T11:49:11.708Z,94552.99
2019-04-04T11:51:53.535Z,94537.45
2019-04-04T11:54:30.026Z,94526.66
2019-04-04T11:56:59.668Z,94530.56
2019-04-04T11:59:29.204Z,94515.06
2019-04-04T12:04:40.247Z,94505.23
2019-04-04T12:07:46.711Z,94508.86
2019-04-04T12:10:16.564Z,94499.58
2019-04-04T12:15:52.315Z,94479.98
2019-04-04T12:18:39.095Z,94493.22
2019-04-04T12:24:07.150Z,94482.48
2019-04-04T12:26:36.721Z,94467.91
2019-04-04T12:29:06.404Z,94464.36
2019-04-04T12:41:03.034Z,94440.80
2019-04-04T12:43:37.953Z,94437.13
2019-04-04T12:46:19.608Z,94424.20
2019-04-04T12:49:01.628Z,94429.66
2019-04-04T12:51:36.966Z,94420.09
2019-04-04T12:54:08.291Z,94420.16
2019-04-04T12:56:46.201Z,94429.16
2019-04-04T13:02:32.502Z,94438.44
2019-04-04T13:05:02.126Z,94433.07
2019-04-04T13:07:32.989Z,94426.88
2019-04-04T13:19:18.658Z,94437.42
2019-04-04T13:21:48.202Z,94436.58
2019-04-04T13:24:24.232Z,94441.53
2019-04-04T13:26:53.379Z,94442.51
2019-04-04T13:29:28.985Z,94391.28
2019-04-04T13:32:04.030Z,94440.38
2019-04-04T13:34:38.513Z,94430.25
2019-04-04T13:37:33.728Z,94422.73
2019-04-04T13:40:08.435Z,94426.48
2019-04-04T13:42:53.538Z,94414.87
2019-04-04T13:45:28.975Z,94414.09
2019-04-04T13:51:42.665Z,94404.79
2019-04-04T13:57:22.540Z,94407.76
2019-04-04T13:59:52.344Z,94411.34
2019-04-04T14:02:22.500Z,94404.63
2019-04-04T14:04:55.060Z,94391.91
2019-04-04T14:07:23.898Z,94393.88
2019-04-04T14:09:53.408Z,94390.84
2019-04-04T14:12:22.897Z,94381.41
2019-04-04T14:14:52.325Z,94383.33
2019-04-04T14:17:22.829Z,94374.06
2019-04-04T14:19:53.637Z,94368.08
2019-04-04T14:22:23.144Z,94369.90
2019-04-04T14:24:52.749Z,94370.80
2019-04-04T14:27:22.276Z,94368.05
2019-04-04T14:29:55.197Z,94363.59
2019-04-04T14:32:23.605Z,94362.30
2019-04-04T14:34:53.393Z,94366.31
2019-04-04T14:37:22.893Z,94362.06
2019-04-04T14:39:52.610Z,94358.23
2019-04-04T14:42:22.385Z,94361.84
2019-04-04T14:44:51.883Z,94362.91
2019-04-04T14:47:21.883Z,94357.46
2019-04-04T14:49:51.377Z,94362.16
2019-04-04T14:52:21.058Z,94363.41
2019-04-04T14:54:52.396Z,94365.62
2019-04-04T14:57:21.965Z,94365.41
2019-04-04T14:59:52.576Z,94368.83
2019-04-04T15:02:23.894Z,94368.72
2019-04-04T15:04:53.576Z,94366.68
2019-04-04T15:07:23.033Z,94362.89
2019-04-04T15:09:52.613Z,94367.07
2019-04-04T15:12:22.102Z,94368.72
2019-04-04T15:14:51.652Z,94373.03
2019-04-04T15:17:21.318Z,94364.88
2019-04-04T15:19:50.815Z,94366.89
2019-04-04T15:22:20.382Z,94354.73
2019-04-04T15:24:50.007Z,94355.23
2019-04-04T15:27:19.760Z,94353.73
2019-04-04T15:29:49.761Z,94355.38
2019-04-04T15:32:19.255Z,94360.41
2019-04-04T15:34:48.754Z,94346.05
2019-04-04T15:37:18.363Z,94356.80
2019-04-04T15:39:47.815Z,94356.49
2019-04-04T15:42:17.371Z,94355.17
2019-04-04T15:44:48.002Z,94352.52
2019-04-04T15:47:17.730Z,94356.62
2019-04-04T15:49:51.339Z,94350.80
2019-04-04T15:52:21.426Z,94355.04
2019-04-04T15:54:51.237Z,94364.20
2019-04-04T15:57:20.859Z,94368.77
2019-04-04T15:59:50.390Z,94364.98
2019-04-04T16:02:20.861Z,94360.67
2019-04-04T16:04:50.633Z,94361.77
2019-04-04T16:07:20.442Z,94362.47
2019-04-04T16:09:50.317Z,94363.66
2019-04-04T16:12:20.316Z,94369.26
2019-04-04T16:14:50.381Z,94369.64
2019-04-04T16:17:21.308Z,94374.03
2019-04-04T16:19:52.397Z,94369.80
2019-04-04T16:22:22.030Z,94375.25
2019-04-04T16:24:51.668Z,94371.91
2019-04-04T16:27:21.234Z,94384.43
2019-04-04T16:29:50.670Z,94390.86
2019-04-04T16:32:20.320Z,94393.22
2019-04-04T16:34:52.438Z,94391.22
2019-04-04T16:37:21.193Z,94392.80
2019-04-04T16:39:50.787Z,94401.92
2019-04-04T16:42:20.360Z,94399.41
2019-04-04T16:44:49.868Z,94402.19
2019-04-04T16:47:19.439Z,94405.18
2019-04-04T16:49:49.017Z,94404.75
2019-04-04T16:52:18.515Z,94407.66
2019-04-04T16:54:48.080Z,94406.84
2019-04-04T16:57:17.588Z,94403.94
2019-04-04T16:59:47.200Z,94412.29
2019-04-04T17:02:16.624Z,94411.94
2019-04-04T17:04:46.344Z,94419.66
2019-04-04T17:07:15.985Z,94420.06
2019-04-04T17:09:45.671Z,94409.78
2019-04-04T17:12:15.467Z,94415.53
2019-04-04T17:14:44.948Z,94417.69
2019-04-04T17:17:14.655Z,94428.78
2019-04-04T17:19:44.163Z,94432.28
2019-04-04T17:22:13.604Z,94432.42
2019-04-04T17:24:43.280Z,94431.02
2019-04-04T17:27:12.782Z,94439.27
2019-04-04T17:29:42.377Z,94446.17
2019-04-04T17:32:13.388Z,94451.19
2019-04-04T17:34:43.305Z,94462.41
2019-04-04T17:37:13.080Z,94465.40
2019-04-04T17:39:42.642Z,94472.39
2019-04-04T17:42:12.571Z,94470.05
2019-04-04T17:44:43.221Z,94475.96
2019-04-04T17:47:12.800Z,94483.28
2019-04-04T17:49:42.392Z,94490.61
2019-04-04T17:52:13.780Z,94490.06
2019-04-04T17:54:43.900Z,94504.87
2019-04-04T17:57:13.515Z,94500.86
2019-04-04T17:59:42.935Z,94509.16
2019-04-04T18:02:12.641Z,94510.38
2019-04-04T18:04:48.154Z,94511.50
2019-04-04T18:07:13.705Z,94521.53
2019-04-04T18:09:45.577Z,94519.85
2019-04-04T18:12:16.883Z,94527.83
2019-04-04T18:14:46.134Z,94534.22
2019-04-04T18:17:15.795Z,94539.86
2019-04-04T18:19:45.513Z,94550.73
2019-04-04T18:22:15.008Z,94557.28
2019-04-04T18:24:44.548Z,94546.34
2019-04-04T18:27:14.233Z,94546.33
2019-04-04T18:29:43.732Z,94560.30
2019-04-04T18:32:16.546Z,94555.86
2019-04-04T18:34:46.247Z,94553.99
2019-04-04T18:37:17.258Z,94559.91
2019-04-04T18:39:46.819Z,94563.61
2019-04-04T18:42:16.432Z,94566.73
2019-04-04T18:44:47.552Z,94570.55
2019-04-04T18:47:17.052Z,94567.48
2019-04-04T18:49:46.881Z,94573.84
2019-04-04T18:52:16.451Z,94577.95
2019-04-04T18:54:46.059Z,94576.80
2019-04-04T18:57:15.630Z,94581.03
2019-04-04T18:59:45.160Z,94575.33
2019-04-04T19:02:14.795Z,94584.81
2019-04-04T19:04:46.029Z,94587.90
2019-04-04T19:07:15.629Z,94584.52
2019-04-04T19:09:45.148Z,94582.46
2019-04-04T19:12:16.074Z,94586.41
2019-04-04T19:14:45.567Z,94585.12
2019-04-04T19:17:15.171Z,94587.61
2019-04-04T19:19:44.685Z,94595.56
2019-04-04T19:22:14.306Z,94597.03
2019-04-04T19:24:43.804Z,94594.56
2019-04-04T19:27:13.481Z,94584.11
2019-04-04T19:29:42.871Z,94592.27
2019-04-04T19:32:14.426Z,94599.29
2019-04-04T19:34:43.996Z,94603.84
2019-04-04T19:37:13.637Z,94607.08
2019-04-04T19:39:43.210Z,94605.52
2019-04-04T19:42:12.963Z,94601.00
2019-04-04T19:44:53.177Z,94601.34
2019-04-04T19:47:14.972Z,94596.52
2019-04-04T19:49:44.619Z,94598.47
2019-04-04T19:52:14.242Z,94612.33
2019-04-04T19:54:43.672Z,94606.01
2019-04-04T19:57:13.267Z,94616.12
2019-04-04T19:59:42.693Z,94607.32
2019-04-04T20:02:12.184Z,94615.42
2019-04-04T20:04:41.652Z,94618.80
2019-04-04T20:07:11.287Z,94615.33
2019-04-04T20:09:40.821Z,94632.39
2019-04-04T20:12:10.318Z,94628.39
2019-04-04T20:14:39.917Z,94618.67
2019-04-04T20:17:09.567Z,94615.55
2019-04-04T20:19:38.993Z,94618.17
2019-04-04T20:22:08.487Z,94621.73
2019-04-04T20:24:38.314Z,94625.52
2019-04-04T20:27:09.429Z,94628.45
2019-04-04T20:29:39.165Z,94629.88
2019-04-04T20:32:08.813Z,94631.23
2019-04-04T20:34:38.702Z,94645.61
2019-04-04T20:37:08.270Z,94646.09
2019-04-04T20:39:37.919Z,94644.84
2019-04-04T20:42:07.447Z,94652.70
2019-04-04T20:44:37.108Z,94659.83
2019-04-04T20:47:06.538Z,94645.73
2019-04-04T20:49:36.011Z,94656.30
2019-04-04T20:52:05.429Z,94657.42
2019-04-04T20:54:34.957Z,94660.05
2019-04-04T20:57:04.519Z,94671.80
2019-04-04T20:59:34.151Z,94677.31
2019-04-04T21:02:03.715Z,94667.98
2019-04-04T21:04:33.375Z,94663.01
2019-04-04T21:07:02.899Z,94669.45
2019-04-04T21:09:32.385Z,94664.22
2019-04-04T21:12:01.949Z,94667.58
2019-04-04T21:14:31.614Z,94668.52
2019-04-04T21:17:01.181Z,94673.89
2019-04-04T21:19:30.718Z,94673.25
2019-04-04T21:22:00.233Z,94671.20
2019-04-04T21:24:29.656Z,94685.09
2019-04-04T21:26:59.110Z,94677.02
2019-04-04T21:29:28.843Z,94684.28
2019-04-04T21:31:58.355Z,94688.16
2019-04-04T21:34:27.819Z,94681.47
2019-04-04T21:36:57.356Z,94692.62
2019-04-04T21:39:29.626Z,94692.45
2019-04-04T21:41:58.077Z,94696.91
2019-04-04T21:44:27.567Z,94694.29
2019-04-04T21:46:56.989Z,94699.72
2019-04-04T21:49:26.630Z,94699.20
2019-04-04T21:51:56.240Z,94698.41
2019-04-04T21:54:25.814Z,94695.55
2019-04-04T21:56:55.250Z,94690.38
2019-04-04T21:59:25.060Z,94702.30
2019-04-04T22:01:54.620Z,94713.16
2019-04-04T22:04:24.184Z,94703.05
2019-04-04T22:06:53.823Z,94710.06
2019-04-04T22:09:23.396Z,94715.19
2019-04-04T22:11:53.074Z,94716.33
2019-04-04T22:14:22.630Z,94724.38
2019-04-04T22:16:53.759Z,94718.83
2019-04-04T22:19:24.543Z,94723.46
2019-04-04T22:21:54.055Z,94717.44
2019-04-04T22:24:23.902Z,94716.73
2019-04-04T22:26:53.413Z,94717.95
2019-04-04T22:29:22.943Z,94713.48
2019-04-04T22:31:52.705Z,94721.53
2019-04-04T22:34:22.134Z,94706.67
2019-04-04T22:36:51.624Z,94730.16
2019-04-04T22:39:21.110Z,94727.92
2019-04-04T22:41:50.742Z,94731.98
2019-04-04T22:44:20.193Z,94725.20
2019-04-04T22:46:49.747Z,94726.34
2019-04-04T22:49:19.371Z,94732.41
2019-04-04T22:51:49.796Z,94736.61
2019-04-04T22:54:19.279Z,94720.69
2019-04-04T22:56:48.702Z,94731.88
2019-04-04T22:59:18.232Z,94731.06
2019-04-04T23:01:48.252Z,94726.27
2019-04-04T23:04:17.951Z,94723.73
2019-04-04T23:06:47.605Z,94720.42
2019-04-04T23:09:17.157Z,94729.17
2019-04-04T23:11:46.641Z,94725.92
2019-04-04T23:14:16.165Z,94720.13
2019-04-04T23:16:46.926Z,94717.16
2019-04-04T23:19:16.498Z,94722.47
2019-04-04T23:21:47.356Z,94724.11
2019-04-04T23:24:18.023Z,94722.28
2019-04-04T23:26:47.512Z,94713.05
2019-04-04T23:29:16.962Z,94717.91
2019-04-04T23:31:46.449Z,94712.00
2019-04-04T23:34:16.078Z,94721.98
2019-04-04T23:36:45.575Z,94718.72
2019-04-04T23:39:15.002Z,94724.31
2019-04-04T23:41:44.606Z,94726.59
2019-04-04T23:44:14.431Z,94717.23
2019-04-04T23:46:43.988Z,94719.73
2019-04-04T23:49:13.549Z,94723.92
2019-04-04T23:51:43.050Z,94730.34
2019-04-04T23:54:12.636Z,94725.91
2019-04-04T23:56:42.194Z,94723.80
2019-04-04T23:59:11.686Z,94724.00
